createdAt,value
2018-07-10T00:00:40.815Z,17.60
2018-07-10T00:04:23.538Z,17.70
2018-07-10T00:08:03.787Z,17.70
2018-07-10T00:10:57.310Z,17.70
2018-07-10T00:13:25.748Z,17.60
2018-07-10T00:15:54.135Z,17.40
2018-07-10T00:18:22.635Z,17.40
2018-07-10T00:20:51.441Z,17.50
2018-07-10T00:23:19.838Z,17.40
2018-07-10T00:25:48.374Z,17.10
2018-07-10T00:28:16.748Z,17.30
2018-07-10T00:30:45.178Z,17.20
2018-07-10T00:33:13.637Z,17.40
2018-07-10T00:35:42.241Z,17.40
2018-07-10T00:38:22.093Z,17.40
2018-07-10T00:40:50.574Z,17.40
2018-07-10T00:43:18.962Z,17.30
2018-07-10T00:45:47.466Z,17.40
2018-07-10T00:48:16.168Z,17.50
2018-07-10T00:50:44.711Z,17.40
2018-07-10T00:53:13.169Z,17.40
2018-07-10T00:55:41.673Z,17.40
2018-07-10T00:58:10.125Z,17.40
2018-07-10T01:00:38.629Z,17.20
2018-07-10T01:03:07.028Z,17.40
2018-07-10T01:08:03.457Z,17.10
2018-07-10T01:10:32.479Z,17.20
2018-07-10T01:13:02.146Z,17.30
2018-07-10T01:15:30.603Z,17.30
2018-07-10T01:17:59.061Z,17.30
2018-07-10T01:20:27.537Z,17.30
2018-07-10T01:22:55.884Z,17.00
2018-07-10T01:25:25.168Z,17.00
2018-07-10T01:27:53.667Z,17.10
2018-07-10T01:30:22.156Z,17.10
2018-07-10T01:32:51.082Z,16.90
2018-07-10T01:35:19.765Z,17.00
2018-07-10T01:37:48.556Z,17.00
2018-07-10T01:40:17.060Z,17.10
2018-07-10T01:42:45.468Z,16.80
2018-07-10T01:45:14.028Z,17.00
2018-07-10T01:47:42.760Z,17.10
2018-07-10T01:50:11.618Z,17.10
2018-07-10T01:52:40.219Z,17.00
2018-07-10T01:55:08.689Z,17.00
2018-07-10T02:00:05.189Z,16.90
2018-07-10T02:02:34.012Z,16.90
2018-07-10T02:05:02.542Z,17.00
2018-07-10T02:07:30.960Z,16.90
2018-07-10T02:09:59.382Z,17.00
2018-07-10T02:12:27.774Z,17.00
2018-07-10T02:14:56.212Z,17.10
2018-07-10T02:17:24.661Z,16.90
2018-07-10T02:19:53.383Z,16.80
2018-07-10T02:22:22.575Z,16.80
2018-07-10T02:24:51.042Z,16.70
2018-07-10T02:27:19.826Z,16.70
2018-07-10T02:29:48.283Z,16.80
2018-07-10T02:32:16.697Z,16.70
2018-07-10T02:34:45.498Z,16.60
2018-07-10T02:37:14.370Z,16.70
2018-07-10T02:39:42.965Z,16.80
2018-07-10T02:42:11.883Z,16.70
2018-07-10T02:44:41.418Z,16.80
2018-07-10T02:47:10.509Z,16.90
2018-07-10T02:49:40.340Z,16.90
2018-07-10T02:52:09.871Z,16.80
2018-07-10T02:54:42.379Z,17.00
2018-07-10T02:59:40.754Z,16.70
2018-07-10T03:02:25.989Z,16.60
2018-07-10T03:04:59.533Z,16.70
2018-07-10T03:07:29.558Z,16.80
2018-07-10T03:09:59.189Z,16.80
2018-07-10T03:12:30.501Z,16.80
2018-07-10T03:15:04.445Z,16.90
2018-07-10T03:17:32.897Z,16.90
2018-07-10T03:20:01.790Z,16.90
2018-07-10T03:22:30.247Z,16.90
2018-07-10T03:24:58.656Z,17.00
2018-07-10T03:27:27.100Z,17.00
2018-07-10T03:29:55.873Z,16.90
2018-07-10T03:32:24.308Z,16.80
2018-07-10T03:34:52.728Z,16.70
2018-07-10T03:37:21.108Z,16.70
2018-07-10T03:39:49.533Z,16.60
2018-07-10T03:42:18.542Z,16.50
2018-07-10T03:44:47.554Z,16.60
2018-07-10T03:47:18.018Z,16.80
2018-07-10T03:52:36.490Z,16.50
2018-07-10T03:57:34.952Z,16.40
2018-07-10T04:00:09.366Z,16.50
2018-07-10T04:02:43.507Z,16.30
2018-07-10T04:07:41.044Z,16.30
2018-07-10T04:10:10.558Z,16.40
2018-07-10T04:12:39.284Z,16.40
2018-07-10T04:15:07.688Z,16.40
2018-07-10T04:20:48.427Z,16.40
2018-07-10T04:23:17.020Z,16.30
2018-07-10T04:25:51.364Z,16.40
2018-07-10T04:28:40.878Z,16.20
2018-07-10T04:31:17.092Z,16.00
2018-07-10T04:33:47.722Z,16.20
2018-07-10T04:38:47.355Z,16.40
2018-07-10T04:41:20.712Z,16.30
2018-07-10T04:43:54.670Z,16.20
2018-07-10T04:49:01.086Z,16.40
2018-07-10T04:54:26.257Z,16.50
2018-07-10T04:57:03.652Z,16.50
2018-07-10T04:59:33.651Z,16.50
2018-07-10T05:02:02.450Z,16.40
2018-07-10T05:04:31.290Z,16.40
2018-07-10T05:07:03.900Z,16.60
2018-07-10T05:09:32.418Z,16.50
2018-07-10T05:12:01.060Z,16.50
2018-07-10T05:14:29.523Z,16.50
2018-07-10T05:16:57.913Z,16.60
2018-07-10T05:19:26.395Z,16.60
2018-07-10T05:21:54.838Z,16.70
2018-07-10T05:26:51.371Z,16.60
2018-07-10T05:29:19.808Z,16.60
2018-07-10T05:31:48.308Z,16.70
2018-07-10T05:34:16.816Z,16.60
2018-07-10T05:36:45.583Z,16.80
2018-07-10T05:39:14.091Z,16.90
2018-07-10T05:41:44.855Z,17.00
2018-07-10T05:44:19.546Z,16.90
2018-07-10T05:46:48.636Z,17.00
2018-07-10T05:49:17.895Z,16.90
2018-07-10T05:51:50.063Z,16.70
2018-07-10T05:54:18.476Z,16.70
2018-07-10T05:59:15.187Z,17.00
2018-07-10T06:01:44.200Z,16.90
2018-07-10T06:04:16.275Z,17.00
2018-07-10T06:06:45.407Z,17.00
2018-07-10T06:09:15.487Z,17.20
2018-07-10T06:11:44.687Z,17.10
2018-07-10T06:14:13.342Z,17.10
2018-07-10T06:16:42.675Z,17.10
2018-07-10T06:19:11.123Z,17.00
2018-07-10T06:21:44.479Z,17.00
2018-07-10T06:24:22.502Z,16.90
2018-07-10T06:26:58.327Z,17.00
2018-07-10T06:29:36.112Z,17.00
2018-07-10T06:32:05.830Z,17.20
2018-07-10T06:34:38.033Z,17.10
2018-07-10T06:37:08.372Z,17.20
2018-07-10T06:39:37.163Z,17.10
2018-07-10T06:42:10.228Z,17.10
2018-07-10T06:44:39.165Z,17.00
2018-07-10T06:47:16.260Z,17.00
2018-07-10T06:49:44.791Z,17.00
2018-07-10T06:52:18.265Z,17.10
2018-07-10T06:54:55.832Z,17.10
2018-07-10T06:57:31.712Z,17.10
2018-07-10T07:00:03.564Z,17.10
2018-07-10T07:02:33.389Z,17.10
2018-07-10T07:05:02.332Z,17.20
2018-07-10T07:07:32.392Z,17.30
2018-07-10T07:10:03.378Z,17.30
2018-07-10T07:12:32.580Z,17.30
2018-07-10T07:15:01.306Z,17.30
2018-07-10T07:17:33.443Z,17.30
2018-07-10T07:20:02.957Z,17.30
2018-07-10T07:22:32.159Z,17.30
2018-07-10T07:25:01.039Z,17.20
2018-07-10T07:27:29.561Z,17.30
2018-07-10T07:29:57.968Z,17.50
2018-07-10T07:32:26.718Z,17.60
2018-07-10T07:34:55.380Z,17.50
2018-07-10T07:37:23.942Z,17.50
2018-07-10T07:39:53.665Z,17.40
2018-07-10T07:42:22.227Z,17.30
2018-07-10T07:44:52.321Z,17.30
2018-07-10T07:47:23.720Z,17.00
2018-07-10T07:49:52.851Z,17.30
2018-07-10T07:52:21.447Z,17.40
2018-07-10T07:54:50.188Z,17.40
2018-07-10T07:57:18.611Z,17.40
2018-07-10T07:59:47.000Z,17.50
2018-07-10T08:02:15.468Z,17.60
2018-07-10T08:04:44.321Z,17.70
2018-07-10T08:07:13.034Z,17.80
2018-07-10T08:09:41.513Z,17.50
2018-07-10T08:12:10.644Z,17.50
2018-07-10T08:14:39.058Z,17.60
2018-07-10T08:17:07.493Z,17.60
2018-07-10T08:19:37.290Z,17.50
2018-07-10T08:22:05.777Z,17.60
2018-07-10T08:24:34.782Z,17.60
2018-07-10T08:27:04.844Z,17.60
2018-07-10T08:29:33.316Z,17.60
2018-07-10T08:32:02.083Z,17.60
2018-07-10T08:34:31.100Z,17.60
2018-07-10T08:37:00.297Z,17.80
2018-07-10T08:39:29.050Z,17.70
2018-07-10T08:41:57.487Z,17.50
2018-07-10T08:44:26.316Z,17.40
2018-07-10T08:46:57.110Z,17.40
2018-07-10T08:51:57.157Z,17.50
2018-07-10T08:54:25.701Z,17.50
2018-07-10T08:56:54.487Z,17.50
2018-07-10T08:59:23.332Z,17.40
2018-07-10T09:01:52.110Z,17.40
2018-07-10T09:04:21.028Z,17.40
2018-07-10T09:06:49.646Z,17.40
2018-07-10T09:09:18.589Z,17.30
2018-07-10T09:11:47.117Z,17.30
2018-07-10T09:14:16.714Z,17.30
2018-07-10T09:16:46.115Z,17.30
2018-07-10T09:19:19.729Z,17.30
2018-07-10T09:21:52.020Z,17.30
2018-07-10T09:24:20.830Z,17.30
2018-07-10T09:26:52.260Z,17.50
2018-07-10T09:29:21.897Z,17.40
2018-07-10T09:31:51.121Z,17.40
2018-07-10T09:34:19.608Z,17.30
2018-07-10T09:36:48.354Z,17.40
2018-07-10T09:39:16.765Z,17.30
2018-07-10T09:41:45.435Z,17.40
2018-07-10T09:44:14.155Z,17.30
2018-07-10T09:46:44.213Z,17.20
2018-07-10T09:49:12.629Z,17.40
2018-07-10T09:51:41.909Z,17.30
2018-07-10T09:54:10.891Z,17.30
2018-07-10T09:56:39.404Z,17.40
2018-07-10T09:59:08.110Z,17.50
2018-07-10T10:01:36.889Z,17.20
2018-07-10T10:04:05.617Z,17.20
2018-07-10T10:06:34.803Z,17.10
2018-07-10T10:09:04.146Z,17.00
2018-07-10T10:11:32.584Z,17.00
2018-07-10T10:14:01.281Z,17.10
2018-07-10T10:16:29.850Z,17.00
2018-07-10T10:18:59.288Z,17.10
2018-07-10T10:21:29.784Z,17.10
2018-07-10T10:23:59.467Z,17.10
2018-07-10T10:26:28.242Z,17.20
2018-07-10T10:28:56.918Z,17.20
2018-07-10T10:31:25.431Z,17.00
2018-07-10T10:33:54.357Z,17.10
2018-07-10T10:36:23.535Z,16.80
2018-07-10T10:38:52.017Z,16.90
2018-07-10T10:41:21.316Z,17.00
2018-07-10T10:43:49.906Z,17.00
2018-07-10T10:46:20.536Z,17.10
2018-07-10T10:48:49.404Z,16.90
2018-07-10T10:51:20.157Z,17.00
2018-07-10T10:53:50.331Z,16.90
2018-07-10T10:56:18.811Z,16.90
2018-07-10T10:58:47.306Z,16.90
2018-07-10T11:01:16.090Z,17.00
2018-07-10T11:03:44.911Z,17.10
2018-07-10T11:06:13.724Z,17.10
2018-07-10T11:08:42.197Z,17.20
2018-07-10T11:11:11.340Z,17.30
2018-07-10T11:13:40.345Z,17.50
2018-07-10T11:16:09.021Z,17.40
2018-07-10T11:21:29.803Z,17.40
2018-07-10T11:23:59.544Z,17.70
2018-07-10T11:26:37.750Z,17.90
2018-07-10T11:29:07.296Z,17.90
2018-07-10T11:31:36.467Z,17.80
2018-07-10T11:34:05.298Z,17.90
2018-07-10T11:36:35.011Z,18.00
2018-07-10T11:39:08.247Z,18.10
2018-07-10T11:41:40.937Z,18.00
2018-07-10T11:46:38.352Z,18.00
2018-07-10T11:49:07.151Z,18.10
2018-07-10T11:51:35.733Z,18.20
2018-07-10T11:54:04.683Z,18.50
2018-07-10T11:56:33.523Z,18.50
2018-07-10T11:59:02.793Z,18.50
2018-07-10T12:01:32.965Z,18.60
2018-07-10T12:04:01.516Z,18.50
2018-07-10T12:08:59.920Z,18.50
2018-07-10T12:11:30.493Z,18.50
2018-07-10T12:13:59.207Z,18.70
2018-07-10T12:16:27.596Z,18.80
2018-07-10T12:18:55.995Z,19.00
2018-07-10T12:21:24.353Z,19.00
2018-07-10T12:23:52.815Z,19.10
2018-07-10T12:26:22.484Z,19.10
2018-07-10T12:31:19.201Z,19.10
2018-07-10T12:33:47.683Z,19.10
2018-07-10T12:36:16.469Z,19.10
2018-07-10T12:38:44.992Z,19.10
2018-07-10T12:41:13.433Z,19.10
2018-07-10T12:43:41.867Z,19.20
2018-07-10T12:46:10.296Z,19.10
2018-07-10T12:48:38.718Z,19.10
2018-07-10T12:51:07.137Z,19.10
2018-07-10T12:53:36.649Z,19.20
2018-07-10T12:56:05.175Z,19.20
2018-07-10T12:58:37.040Z,19.10
2018-07-10T13:01:05.801Z,19.20
2018-07-10T13:03:34.300Z,19.30
2018-07-10T13:06:02.768Z,19.30
2018-07-10T13:08:31.266Z,19.20
2018-07-10T13:10:59.853Z,19.10
2018-07-10T13:13:28.380Z,19.20
2018-07-10T13:15:57.366Z,19.10
2018-07-10T13:18:28.703Z,19.00
2018-07-10T13:20:57.541Z,19.00
2018-07-10T13:23:26.381Z,19.00
2018-07-10T13:25:54.791Z,18.80
2018-07-10T13:28:23.558Z,18.80
2018-07-10T13:30:52.058Z,18.80
2018-07-10T13:33:20.545Z,18.60
2018-07-10T13:35:49.007Z,18.60
2018-07-10T13:38:20.254Z,18.70
2018-07-10T13:40:49.380Z,18.80
2018-07-10T13:43:17.948Z,18.70
2018-07-10T13:45:46.380Z,18.80
2018-07-10T13:48:15.186Z,18.80
2018-07-10T13:50:44.865Z,18.80
2018-07-10T13:53:13.253Z,18.90
2018-07-10T13:55:42.398Z,19.20
2018-07-10T13:58:17.670Z,19.20
2018-07-10T14:00:47.584Z,19.30
2018-07-10T14:03:16.086Z,19.30
2018-07-10T14:05:44.596Z,19.30
2018-07-10T14:08:13.034Z,19.20
2018-07-10T14:10:41.405Z,19.30
2018-07-10T14:13:09.821Z,19.30
2018-07-10T14:15:38.217Z,19.40
2018-07-10T14:18:06.902Z,19.50
2018-07-10T14:20:44.468Z,19.70
2018-07-10T14:23:13.568Z,19.60
2018-07-10T14:25:42.239Z,19.80
2018-07-10T14:28:11.054Z,19.90
2018-07-10T14:30:39.490Z,20.10
2018-07-10T14:33:08.039Z,20.10
2018-07-10T14:35:36.518Z,20.10
2018-07-10T14:38:06.374Z,20.10
2018-07-10T14:40:38.130Z,20.10
2018-07-10T14:43:06.707Z,20.20
2018-07-10T14:45:36.384Z,20.30
2018-07-10T14:48:05.862Z,20.30
2018-07-10T14:53:02.557Z,20.60
2018-07-10T14:55:31.017Z,20.60
2018-07-10T14:57:59.849Z,20.60
2018-07-10T15:00:28.366Z,20.70
2018-07-10T15:05:25.014Z,20.60
2018-07-10T15:07:53.408Z,20.50
2018-07-10T15:10:21.806Z,20.50
2018-07-10T15:12:50.257Z,20.60
2018-07-10T15:15:18.886Z,20.70
2018-07-10T15:17:52.618Z,20.60
2018-07-10T15:20:21.079Z,20.60
2018-07-10T15:25:17.770Z,20.60
2018-07-10T15:27:46.821Z,20.60
2018-07-10T15:30:15.329Z,20.60
2018-07-10T15:32:43.741Z,20.90
2018-07-10T15:35:12.518Z,21.00
2018-07-10T15:37:41.046Z,20.90
2018-07-10T15:40:09.500Z,20.70
2018-07-10T15:42:37.994Z,20.60
2018-07-10T15:45:06.430Z,20.60
2018-07-10T15:47:34.861Z,20.50
2018-07-10T15:50:03.382Z,20.50
2018-07-10T15:52:31.775Z,20.40
2018-07-10T15:55:00.337Z,20.20
2018-07-10T15:57:28.939Z,20.30
2018-07-10T15:59:57.472Z,20.40
2018-07-10T16:02:25.900Z,20.40
2018-07-10T16:04:55.064Z,20.60
2018-07-10T16:07:23.691Z,20.70
2018-07-10T16:09:52.537Z,20.90
2018-07-10T16:12:22.073Z,21.00
2018-07-10T16:14:52.235Z,21.20
2018-07-10T16:17:23.691Z,21.10
2018-07-10T16:20:09.698Z,21.10
2018-07-10T16:22:39.138Z,21.10
2018-07-10T16:25:11.960Z,21.40
2018-07-10T16:27:45.286Z,21.60
2018-07-10T16:30:21.617Z,21.70
2018-07-10T16:32:50.119Z,21.70
2018-07-10T16:35:19.735Z,21.60
2018-07-10T16:37:49.488Z,21.50
2018-07-10T16:40:17.932Z,21.50
2018-07-10T16:42:48.331Z,21.40
2018-07-10T16:45:20.605Z,21.60
2018-07-10T16:48:10.862Z,21.60
2018-07-10T16:50:41.876Z,21.70
2018-07-10T16:53:12.763Z,21.60
2018-07-10T16:55:41.518Z,21.80
2018-07-10T16:58:10.414Z,22.00
2018-07-10T17:00:38.862Z,22.10
2018-07-10T17:03:07.405Z,21.90
2018-07-10T17:05:35.867Z,21.70
2018-07-10T17:08:04.524Z,21.70
2018-07-10T17:10:32.970Z,21.70
2018-07-10T17:13:01.799Z,21.70
2018-07-10T17:15:30.209Z,21.80
2018-07-10T17:17:58.637Z,21.70
2018-07-10T17:20:27.103Z,21.60
2018-07-10T17:22:55.593Z,21.70
2018-07-10T17:25:24.050Z,21.40
2018-07-10T17:27:52.799Z,21.30
2018-07-10T17:30:21.241Z,21.20
2018-07-10T17:32:50.101Z,21.20
2018-07-10T17:35:18.544Z,21.10
2018-07-10T17:37:48.687Z,21.00
2018-07-10T17:40:17.267Z,21.10
2018-07-10T17:42:46.924Z,20.90
2018-07-10T17:45:19.184Z,20.70
2018-07-10T17:50:16.084Z,20.40
2018-07-10T17:52:44.795Z,20.40
2018-07-10T17:55:13.273Z,20.30
2018-07-10T17:57:42.285Z,20.40
2018-07-10T18:00:10.833Z,20.40
2018-07-10T18:02:39.270Z,20.40
2018-07-10T18:05:07.900Z,20.40
2018-07-10T18:07:36.458Z,20.30
2018-07-10T18:10:04.813Z,20.40
2018-07-10T18:12:33.237Z,20.40
2018-07-10T18:15:01.732Z,20.30
2018-07-10T18:17:30.408Z,20.20
2018-07-10T18:19:58.894Z,20.10
2018-07-10T18:22:27.348Z,20.10
2018-07-10T18:24:55.780Z,20.10
2018-07-10T18:27:24.154Z,19.90
2018-07-10T18:32:20.766Z,19.90
2018-07-10T18:34:49.301Z,19.80
2018-07-10T18:37:17.705Z,19.80
2018-07-10T18:39:46.183Z,19.90
2018-07-10T18:42:14.881Z,20.00
2018-07-10T18:44:43.430Z,19.90
2018-07-10T18:47:11.880Z,19.90
2018-07-10T18:49:40.390Z,19.80
2018-07-10T18:52:08.827Z,19.80
2018-07-10T18:54:39.434Z,19.80
2018-07-10T18:59:27.690Z,19.80
2018-07-10T19:01:58.324Z,19.90
2018-07-10T19:05:03.899Z,19.90
2018-07-10T19:07:32.819Z,19.80
2018-07-10T19:10:01.276Z,19.70
2018-07-10T19:12:29.763Z,19.80
2018-07-10T19:14:58.478Z,19.70
2018-07-10T19:17:28.346Z,19.80
2018-07-10T19:22:29.520Z,19.70
2018-07-10T19:24:59.504Z,19.40
2018-07-10T19:27:32.115Z,19.40
2018-07-10T19:30:06.504Z,19.40
2018-07-10T19:32:35.283Z,19.40
2018-07-10T19:35:03.731Z,19.50
2018-07-10T19:37:33.931Z,19.50
2018-07-10T19:42:31.860Z,19.20
2018-07-10T19:45:00.790Z,19.20
2018-07-10T19:47:30.156Z,19.20
2018-07-10T19:50:02.756Z,19.20
2018-07-10T19:52:31.353Z,19.20
2018-07-10T19:54:59.763Z,19.00
2018-07-10T19:58:06.821Z,18.90
2018-07-10T20:00:42.724Z,19.10
2018-07-10T20:03:16.273Z,19.00
2018-07-10T20:05:44.660Z,19.00
2018-07-10T20:08:15.412Z,18.80
2018-07-10T20:10:48.814Z,18.80
2018-07-10T20:13:30.133Z,18.80
2018-07-10T20:16:04.225Z,18.80
2018-07-10T20:18:49.682Z,18.60
2018-07-10T20:21:30.273Z,18.60
2018-07-10T20:24:05.462Z,18.60
2018-07-10T20:26:58.618Z,18.60
2018-07-10T20:34:41.304Z,18.70
2018-07-10T20:37:20.699Z,18.70
2018-07-10T20:39:49.176Z,18.70
2018-07-10T20:42:18.731Z,18.70
2018-07-10T20:44:57.808Z,18.60
2018-07-10T20:47:28.437Z,18.50
2018-07-10T20:50:04.172Z,18.50
2018-07-10T20:53:45.751Z,18.30
2018-07-10T20:56:18.620Z,18.40
2018-07-10T20:58:49.531Z,18.60
2018-07-10T21:01:17.917Z,18.30
2018-07-10T21:03:51.252Z,18.30
2018-07-10T21:06:23.629Z,18.40
2018-07-10T21:09:12.197Z,18.30
2018-07-10T21:11:49.450Z,18.40
2018-07-10T21:14:24.623Z,18.40
2018-07-10T21:17:01.350Z,18.40
2018-07-10T21:19:40.357Z,18.40
2018-07-10T21:22:13.264Z,18.40
2018-07-10T21:24:47.488Z,18.40
2018-07-10T21:27:23.740Z,18.60
2018-07-10T21:29:59.398Z,18.30
2018-07-10T21:32:33.860Z,18.20
2018-07-10T21:35:06.793Z,18.20
2018-07-10T21:37:46.444Z,18.20
2018-07-10T21:41:32.645Z,18.30
2018-07-10T21:44:09.798Z,18.00
2018-07-10T21:46:40.379Z,18.10
2018-07-10T21:49:52.112Z,18.20
2018-07-10T21:52:20.529Z,18.30
2018-07-10T21:54:49.021Z,18.30
2018-07-10T21:57:18.876Z,18.20
2018-07-10T22:02:17.529Z,18.30
2018-07-10T22:04:46.635Z,18.20
2018-07-10T22:07:16.001Z,18.30
2018-07-10T22:12:15.866Z,17.90
2018-07-10T22:14:44.664Z,18.00
2018-07-10T22:17:15.665Z,17.90
2018-07-10T22:19:46.093Z,17.80
2018-07-10T22:22:22.029Z,17.90
2018-07-10T22:24:51.896Z,17.90
2018-07-10T22:27:20.782Z,17.80
2018-07-10T22:32:56.798Z,17.90
2018-07-10T22:35:25.415Z,17.90
2018-07-10T22:37:54.033Z,17.70
2018-07-10T22:40:22.501Z,17.50
2018-07-10T22:42:50.946Z,17.60
2018-07-10T22:45:19.744Z,17.60
2018-07-10T22:47:48.167Z,17.40
2018-07-10T22:50:20.320Z,17.40
2018-07-10T22:52:54.246Z,17.50
2018-07-10T22:55:31.076Z,17.50
2018-07-10T22:58:01.547Z,17.40
2018-07-10T23:03:23.144Z,17.40
2018-07-10T23:05:52.590Z,17.50
2018-07-10T23:10:52.798Z,17.50
2018-07-10T23:13:21.161Z,17.50
2018-07-10T23:15:50.311Z,17.50
2018-07-10T23:18:19.301Z,17.40
2018-07-10T23:20:47.899Z,17.40
2018-07-10T23:25:44.904Z,17.40
2018-07-10T23:28:13.346Z,17.20
2018-07-10T23:30:43.010Z,17.30
2018-07-10T23:33:16.605Z,17.10
2018-07-10T23:35:47.741Z,17.20
2018-07-10T23:38:55.318Z,17.30
2018-07-10T23:41:29.900Z,17.10
2018-07-10T23:43:58.670Z,17.10
2018-07-10T23:46:32.799Z,17.10
2018-07-10T23:49:09.337Z,16.90
2018-07-10T23:51:49.073Z,17.00
2018-07-10T23:54:17.993Z,17.00
2018-07-10T23:56:46.846Z,17.00
2018-07-10T23:59:15.323Z,16.80
